createdAt,value
2023-02-06T00:01:07.559Z,33.40
2023-02-06T00:07:19.069Z,33.30
2023-02-06T00:13:31.830Z,33.10
2023-02-06T00:19:39.534Z,33.10
2023-02-06T00:25:50.300Z,33.50
2023-02-06T00:32:04.014Z,33.40
2023-02-06T00:38:19.749Z,33.10
2023-02-06T00:44:31.245Z,33.30
2023-02-06T00:50:41.131Z,33.40
2023-02-06T00:56:50.713Z,33.50
2023-02-06T01:03:04.213Z,33.50
2023-02-06T01:09:15.596Z,33.20
2023-02-06T01:15:27.008Z,33.30
2023-02-06T01:21:39.468Z,33.40
2023-02-06T01:27:50.509Z,33.60
2023-02-06T01:34:03.626Z,34.30
2023-02-06T01:46:39.179Z,33.60
2023-02-06T01:52:51.917Z,33.80
2023-02-06T01:59:05.787Z,34.10
2023-02-06T02:05:17.456Z,34.30
2023-02-06T02:11:29.585Z,34.50
2023-02-06T02:17:45.655Z,34.60
2023-02-06T02:23:56.333Z,34.50
2023-02-06T02:30:34.086Z,34.40
2023-02-06T02:36:45.038Z,34.60
2023-02-06T02:42:57.588Z,34.70
2023-02-06T02:49:08.903Z,34.90
2023-02-06T02:55:26.475Z,34.80
2023-02-06T03:01:41.454Z,34.70
2023-02-06T03:14:11.536Z,34.50
2023-02-06T03:20:23.038Z,34.60
2023-02-06T03:26:37.095Z,34.60
2023-02-06T03:32:50.088Z,34.40
2023-02-06T03:38:59.882Z,34.50
2023-02-06T03:45:13.875Z,34.50
2023-02-06T03:51:27.561Z,34.50
2023-02-06T03:57:40.753Z,35.10
2023-02-06T04:03:49.667Z,34.40
2023-02-06T04:10:01.332Z,34.60
2023-02-06T04:16:17.771Z,34.70
2023-02-06T04:22:28.464Z,35.20
2023-02-06T04:28:40.980Z,35.40
2023-02-06T04:34:55.639Z,35.40
2023-02-06T04:41:14.962Z,35.50
2023-02-06T04:47:24.542Z,35.40
2023-02-06T04:53:40.624Z,35.60
2023-02-06T04:59:53.152Z,35.40
2023-02-06T05:06:11.232Z,35.30
2023-02-06T05:12:23.189Z,35.30
2023-02-06T05:18:33.087Z,35.00
2023-02-06T05:24:46.865Z,35.10
2023-02-06T05:30:59.120Z,34.90
2023-02-06T05:37:09.788Z,35.00
2023-02-06T05:43:19.781Z,34.90
2023-02-06T05:49:34.959Z,34.80
2023-02-06T05:55:45.676Z,34.90
2023-02-06T06:01:57.081Z,34.70
2023-02-06T06:08:10.754Z,34.80
2023-02-06T06:14:21.517Z,34.60
2023-02-06T06:20:32.808Z,34.60
2023-02-06T06:26:47.290Z,34.70
2023-02-06T06:32:59.160Z,34.50
2023-02-06T06:39:09.732Z,34.60
2023-02-06T06:45:21.947Z,34.50
2023-02-06T06:51:37.840Z,34.50
2023-02-06T06:57:51.520Z,34.50
2023-02-06T07:04:04.481Z,34.70
2023-02-06T07:10:20.481Z,34.50
2023-02-06T07:16:33.586Z,34.40
2023-02-06T07:22:52.007Z,34.60
2023-02-06T07:29:01.754Z,34.70
2023-02-06T07:35:12.996Z,34.60
2023-02-06T07:41:23.018Z,34.70
2023-02-06T07:47:34.798Z,34.60
2023-02-06T07:53:47.825Z,34.30
2023-02-06T07:59:57.226Z,34.50
2023-02-06T08:06:10.114Z,34.60
2023-02-06T08:12:25.644Z,34.70
2023-02-06T08:18:35.047Z,34.70
2023-02-06T08:24:46.783Z,34.70
2023-02-06T08:30:59.698Z,34.30
2023-02-06T08:37:13.006Z,34.50
2023-02-06T08:43:22.879Z,34.70
2023-02-06T08:49:32.277Z,34.70
2023-02-06T08:55:42.322Z,34.70
2023-02-06T09:01:55.854Z,35.00
2023-02-06T09:08:07.037Z,34.90
2023-02-06T09:14:23.543Z,34.60
2023-02-06T09:20:34.610Z,34.70
2023-02-06T09:26:59.038Z,34.90
2023-02-06T09:32:55.959Z,35.00
2023-02-06T09:39:05.311Z,35.10
2023-02-06T09:45:17.364Z,34.90
2023-02-06T09:51:31.709Z,34.70
2023-02-06T09:57:48.788Z,34.90
2023-02-06T10:04:02.853Z,35.10
2023-02-06T10:10:18.192Z,35.10
2023-02-06T10:16:37.167Z,34.90
2023-02-06T10:22:49.779Z,35.00
2023-02-06T10:29:02.074Z,35.00
2023-02-06T10:35:46.316Z,35.10
2023-02-06T10:41:59.819Z,35.10
2023-02-06T10:48:14.278Z,35.00
2023-02-06T10:54:24.393Z,35.10
2023-02-06T11:00:38.016Z,35.20
2023-02-06T11:06:47.865Z,35.30
2023-02-06T11:12:59.074Z,35.20
2023-02-06T11:19:18.275Z,35.00
2023-02-06T11:25:31.320Z,35.10
2023-02-06T11:31:50.833Z,35.20
2023-02-06T11:38:05.438Z,35.30
2023-02-06T11:44:20.786Z,35.00
2023-02-06T11:50:32.165Z,35.10
2023-02-06T11:56:42.132Z,35.20
2023-02-06T12:02:57.686Z,35.30
2023-02-06T12:09:11.961Z,35.30
2023-02-06T12:15:44.831Z,35.10
2023-02-06T12:21:39.032Z,35.10
2023-02-06T12:27:51.070Z,35.20
2023-02-06T12:34:02.276Z,35.30
2023-02-06T12:40:15.866Z,35.30
2023-02-06T12:46:27.989Z,35.40
2023-02-06T12:52:41.786Z,35.50
2023-02-06T12:58:58.148Z,35.50
2023-02-06T13:05:16.222Z,35.40
2023-02-06T13:11:35.752Z,35.40
2023-02-06T13:17:49.016Z,35.20
2023-02-06T13:24:20.039Z,35.00
2023-02-06T13:37:29.545Z,35.30
2023-02-06T13:43:43.982Z,35.10
2023-02-06T13:50:24.622Z,36.40
2023-02-06T13:56:46.854Z,36.70
2023-02-06T14:03:01.845Z,35.90
2023-02-06T14:09:16.428Z,35.60
2023-02-06T14:15:32.449Z,36.00
2023-02-06T14:21:46.360Z,36.50
2023-02-06T14:28:08.194Z,36.90
2023-02-06T14:34:39.897Z,36.20
2023-02-06T14:40:53.329Z,35.90
2023-02-06T14:47:03.039Z,36.10
2023-02-06T14:53:12.998Z,36.30
2023-02-06T14:59:26.023Z,36.10
2023-02-06T15:05:40.032Z,35.40
2023-02-06T15:11:59.806Z,35.50
2023-02-06T15:18:13.769Z,36.30
2023-02-06T15:24:54.934Z,36.30
2023-02-06T15:31:07.327Z,36.60
2023-02-06T15:37:31.262Z,35.70
2023-02-06T15:43:48.187Z,35.90
2023-02-06T15:49:59.688Z,36.10
2023-02-06T15:56:13.222Z,37.60
2023-02-06T16:02:30.812Z,36.00
2023-02-06T16:08:39.222Z,36.00
2023-02-06T16:15:03.093Z,36.10
2023-02-06T16:21:23.019Z,36.10
2023-02-06T16:27:33.778Z,36.70
2023-02-06T16:33:45.225Z,36.20
2023-02-06T16:39:58.129Z,35.30
2023-02-06T16:46:07.115Z,35.60
2023-02-06T16:52:23.156Z,35.50
2023-02-06T16:58:34.981Z,35.80
2023-02-06T17:04:47.984Z,35.80
2023-02-06T17:11:00.253Z,36.30
2023-02-06T17:17:22.872Z,36.10
2023-02-06T17:23:38.816Z,35.20
2023-02-06T17:29:48.947Z,35.60
2023-02-06T17:35:59.954Z,36.00
2023-02-06T17:42:12.566Z,36.30
2023-02-06T17:48:28.616Z,36.20
2023-02-06T17:54:42.817Z,36.30
2023-02-06T18:00:52.257Z,36.00
2023-02-06T18:07:05.447Z,36.10
2023-02-06T18:13:16.950Z,35.90
2023-02-06T18:19:28.938Z,35.90
2023-02-06T18:25:40.466Z,35.80
2023-02-06T18:31:49.575Z,35.50
2023-02-06T18:38:01.771Z,35.60
2023-02-06T18:44:17.618Z,35.90
2023-02-06T18:50:25.175Z,35.20
2023-02-06T18:56:35.045Z,34.70
2023-02-06T19:02:50.295Z,34.70
2023-02-06T19:09:00.409Z,34.80
2023-02-06T19:15:12.548Z,34.80
2023-02-06T19:21:23.551Z,34.70
2023-02-06T19:27:31.188Z,35.00
2023-02-06T19:33:39.858Z,34.90
2023-02-06T19:39:51.671Z,34.30
2023-02-06T19:46:04.212Z,34.00
2023-02-06T19:52:19.949Z,34.10
2023-02-06T19:58:36.240Z,34.30
2023-02-06T20:04:47.704Z,34.20
2023-02-06T20:10:59.152Z,34.20
2023-02-06T20:17:11.869Z,34.20
2023-02-06T20:23:37.143Z,35.00
2023-02-06T20:29:53.207Z,35.50
2023-02-06T20:36:07.233Z,34.20
2023-02-06T20:42:17.429Z,34.50
2023-02-06T20:48:29.740Z,34.30
2023-02-06T20:54:43.162Z,34.50
2023-02-06T21:00:58.794Z,35.00
2023-02-06T21:07:10.374Z,34.90
2023-02-06T21:13:20.249Z,34.50
2023-02-06T21:19:30.853Z,34.00
2023-02-06T21:25:38.996Z,34.30
2023-02-06T21:31:57.989Z,34.50
2023-02-06T21:38:05.145Z,34.60
2023-02-06T21:44:14.679Z,35.00
2023-02-06T21:50:26.045Z,34.80
2023-02-06T21:56:39.613Z,34.10
2023-02-06T22:02:54.211Z,34.90
2023-02-06T22:09:06.905Z,34.60
2023-02-06T22:15:19.312Z,34.80
2023-02-06T22:21:33.801Z,34.80
2023-02-06T22:27:46.311Z,34.90
2023-02-06T22:34:00.672Z,34.60
2023-02-06T22:40:14.494Z,34.00
2023-02-06T22:46:27.881Z,34.20
2023-02-06T22:52:59.828Z,34.70
2023-02-06T22:59:14.882Z,35.00
2023-02-06T23:05:28.162Z,35.60
2023-02-06T23:11:36.786Z,35.70
2023-02-06T23:17:49.687Z,35.50
2023-02-06T23:24:03.121Z,34.80
2023-02-06T23:30:19.062Z,35.30
2023-02-06T23:36:31.537Z,35.60
2023-02-06T23:42:44.049Z,35.90
2023-02-06T23:48:54.425Z,35.80
2023-02-06T23:55:08.161Z,36.10
